Weather at Chicago Midway International Airport

Public forecast

Using degrees Fahrenheit for public forecast. Weather courtesy of forecast.io.

Current aviation weather report (METAR) for Chicago Midway International Airport

Retrieved 2021/10/22 06:53 UTC (28 minutes ago):

KMDW 220653Z 33005KT 10SM FEW040 BKN250 08/02 A3004 RMK AO2 SLP177 T00830022

Aviation forecast (TAF) for Chicago Midway International Airport

Retrieved 2021/10/22 06:39 UTC (42 minutes ago):

TAF KMDW 220536Z 2206/2312 34007KT P6SM FEW025 BKN035 FM221000 32009KT P6SM FEW025 SCT250 FM221400 32009KT P6SM SCT030 BKN100 TEMPO 2215/2218 BKN020 FM222300 34004KT P6SM SCT200